Time;durP1;ratioP1;P1;durP2;ratioP2;P2;SDS_P1;SDS_P2;PMS_P1;PMS_P2;Temp;Humidity;BMP_temperature;BMP_pressure;BME280_temperature;BME280_humidity;BME280_pressure;Samples;Min_cycle;Max_cycle;Signal;HPM_P1;HPM_P2
2022/08/18 00:00:08;;;;;;;18.10;13.80;;;;;;;16.75;100.00;97018.07;109901;1250;59688;-72
2022/08/18 00:03:07;;;;;;;14.20;11.90;;;;;;;16.74;100.00;97012.50;109847;1251;70724;-73
2022/08/18 00:05:57;;;;;;;20.00;13.40;;;;;;;16.73;100.00;97014.04;109775;1250;68600;-71
2022/08/18 00:08:28;;;;;;;19.40;14.60;;;;;;;16.72;100.00;97016.20;109831;1250;69363;-70
2022/08/18 00:10:59;;;;;;;21.90;15.30;;;;;;;16.72;100.00;97017.81;110048;1247;59711;-72
2022/08/18 00:13:29;;;;;;;19.00;14.20;;;;;;;16.72;100.00;97021.16;110003;1247;59644;-71
2022/08/18 00:15:58;;;;;;;25.50;16.20;;;;;;;16.72;100.00;97021.34;109779;1251;71538;-71
2022/08/18 00:18:28;;;;;;;24.10;16.80;;;;;;;16.72;100.00;97016.79;109911;1251;69454;-72
2022/08/18 00:20:57;;;;;;;19.00;13.40;;;;;;;16.71;100.00;97019.84;110009;1250;69243;-72
2022/08/18 00:23:27;;;;;;;23.70;13.30;;;;;;;16.71;100.00;97021.27;109924;1250;59755;-71
2022/08/18 00:25:58;;;;;;;19.40;14.30;;;;;;;16.70;100.00;97021.06;110037;1247;59618;-71
2022/08/18 00:28:29;;;;;;;20.70;15.80;;;;;;;16.68;100.00;97016.95;110056;1248;70786;-72
2022/08/18 00:30:59;;;;;;;18.80;13.40;;;;;;;16.65;100.00;97016.23;110041;1251;68544;-70
2022/08/18 00:33:28;;;;;;;18.30;12.60;;;;;;;16.62;100.00;97017.39;110001;1248;69458;-73
2022/08/18 00:35:57;;;;;;;19.30;15.20;;;;;;;16.61;100.00;97016.64;110096;1247;59725;-73
2022/08/18 00:38:27;;;;;;;20.20;14.30;;;;;;;16.60;100.00;97022.27;110627;1248;60119;-73
2022/08/18 00:40:57;;;;;;;19.60;15.20;;;;;;;16.60;100.00;97025.94;109970;1249;71456;-73
2022/08/18 00:43:38;;;;;;;16.70;12.20;;;;;;;16.58;100.00;97027.70;109960;1249;69224;-70
2022/08/18 00:46:14;;;;;;;25.80;15.30;;;;;;;16.56;100.00;97026.48;110135;1247;68724;-71
2022/08/18 00:48:46;;;;;;;21.60;14.10;;;;;;;16.53;100.00;97026.95;110009;1248;59748;-71
2022/08/18 00:51:29;;;;;;;34.70;15.10;;;;;;;16.49;99.96;97027.58;110084;1247;60056;-72
2022/08/18 00:54:15;;;;;;;37.10;13.10;;;;;;;16.45;99.38;97026.98;110128;1247;71001;-70
2022/08/18 00:56:48;;;;;;;35.80;14.50;;;;;;;16.39;99.46;97031.45;109928;1251;68813;-71
2022/08/18 00:59:30;;;;;;;26.70;13.10;;;;;;;16.34;99.79;97037.91;109990;1248;69406;-71
2022/08/18 01:02:04;;;;;;;17.80;12.10;;;;;;;16.32;100.00;97043.77;110053;1248;59700;-71
2022/08/18 01:04:56;;;;;;;14.30;10.60;;;;;;;16.30;100.00;97039.72;110051;1250;59692;-72
2022/08/18 01:07:34;;;;;;;15.90;11.10;;;;;;;16.29;100.00;97038.77;110017;1249;70576;-71
2022/08/18 01:10:06;;;;;;;23.90;15.00;;;;;;;16.28;100.00;97042.02;109800;1251;68659;-71
2022/08/18 01:12:37;;;;;;;30.00;15.40;;;;;;;16.25;100.00;97042.64;109877;1249;68600;-70
2022/08/18 01:15:18;;;;;;;18.00;12.30;;;;;;;16.22;100.00;97040.23;109976;1250;59695;-71
2022/08/18 01:23:54;;;;;;;20.70;13.10;;;;;;;16.13;100.00;97044.45;109741;1251;68451;-72
2022/08/18 01:26:27;;;;;;;22.20;15.80;;;;;;;16.12;100.00;97047.88;109958;1250;69346;-73
2022/08/18 01:29:10;;;;;;;21.20;14.40;;;;;;;16.11;100.00;97046.40;109683;1251;59731;-71
2022/08/18 01:31:54;;;;;;;17.30;12.10;;;;;;;16.10;100.00;97042.27;110045;1248;59694;-71
2022/08/18 01:34:27;;;;;;;13.00;10.20;;;;;;;16.09;100.00;97043.31;110067;1247;71531;-71
2022/08/18 01:36:57;;;;;;;18.40;13.50;;;;;;;16.08;100.00;97045.10;110018;1250;69205;-74
2022/08/18 01:39:28;;;;;;;18.40;12.30;;;;;;;16.08;100.00;97047.42;110531;1248;69395;-72
2022/08/18 01:42:20;;;;;;;16.10;10.20;;;;;;;16.06;100.00;97051.45;109928;1250;59764;-73
2022/08/18 01:44:52;;;;;;;12.70;9.60;;;;;;;16.05;100.00;97052.65;109871;1251;59756;-72
2022/08/18 01:47:23;;;;;;;16.70;11.80;;;;;;;16.06;100.00;97054.70;110040;1247;70988;-71
2022/08/18 01:49:57;;;;;;;20.70;14.40;;;;;;;16.06;100.00;97055.86;110087;1248;68689;-71
2022/08/18 01:52:28;;;;;;;21.10;15.80;;;;;;;16.04;100.00;97054.63;110013;1249;68493;-72
2022/08/18 01:54:58;;;;;;;16.10;13.10;;;;;;;16.03;100.00;97055.83;109994;1248;59707;-71
2022/08/18 01:57:30;;;;;;;18.60;14.50;;;;;;;16.02;100.00;97053.78;109632;1251;59720;-70
2022/08/18 02:00:02;;;;;;;18.90;15.30;;;;;;;16.02;100.00;97052.42;109786;1251;71637;-70
2022/08/18 02:02:40;;;;;;;19.60;15.80;;;;;;;16.02;100.00;97049.96;110068;1247;68606;-72
2022/08/18 02:05:21;;;;;;;21.00;15.70;;;;;;;16.02;100.00;97043.42;109905;1251;69464;-71
2022/08/18 02:07:53;;;;;;;17.30;13.70;;;;;;;16.05;100.00;97045.63;110073;1247;59680;-69
2022/08/18 02:10:23;;;;;;;15.30;10.90;;;;;;;16.06;100.00;97043.77;110026;1250;59698;-71
2022/08/18 02:12:54;;;;;;;21.60;14.60;;;;;;;16.08;100.00;97042.88;110050;1250;71370;-72
2022/08/18 02:15:26;;;;;;;14.90;11.80;;;;;;;16.09;100.00;97040.68;109980;1250;68698;-70
2022/08/18 02:18:00;;;;;;;19.80;14.50;;;;;;;16.08;100.00;97044.43;110029;1250;69428;-72
2022/08/18 02:20:34;;;;;;;21.70;13.00;;;;;;;16.08;100.00;97044.26;110073;1248;59683;-71
2022/08/18 02:23:05;;;;;;;12.00;10.10;;;;;;;16.07;100.00;97042.11;109867;1251;59736;-72
2022/08/18 02:25:37;;;;;;;17.60;11.50;;;;;;;16.05;100.00;97043.48;109729;1250;70741;-72
2022/08/18 02:28:08;;;;;;;13.50;10.40;;;;;;;16.03;100.00;97039.78;109809;1251;69215;-70
2022/08/18 02:30:38;;;;;;;11.90;9.10;;;;;;;16.01;100.00;97039.55;110055;1249;69476;-73
2022/08/18 02:33:10;;;;;;;15.70;11.20;;;;;;;15.97;100.00;97040.08;110093;1250;59760;-73
2022/08/18 02:35:42;;;;;;;18.20;11.10;;;;;;;15.94;100.00;97042.63;110077;1248;60092;-70
2022/08/18 02:38:12;;;;;;;15.80;11.10;;;;;;;15.93;99.97;97042.98;110024;1247;71578;-70
2022/08/18 02:40:46;;;;;;;19.40;13.70;;;;;;;15.93;100.00;97039.65;110094;1247;68671;-72
2022/08/18 02:43:17;;;;;;;16.30;12.30;;;;;;;15.92;100.00;97039.71;110474;1247;69216;-73
2022/08/18 02:45:48;;;;;;;17.00;12.70;;;;;;;15.91;100.00;97037.53;110221;1247;59706;-72
2022/08/18 02:48:33;;;;;;;15.30;11.40;;;;;;;15.92;100.00;97037.48;110051;1248;59765;-72
2022/08/18 02:51:05;;;;;;;19.00;14.00;;;;;;;15.93;100.00;97030.15;110024;1250;71594;-73
2022/08/18 02:53:36;;;;;;;17.10;11.80;;;;;;;15.94;100.00;97034.24;110035;1250;68617;-70
2022/08/18 02:56:23;;;;;;;19.00;13.80;;;;;;;15.95;100.00;97037.63;109793;1251;68455;-73
2022/08/18 02:59:15;;;;;;;21.90;13.80;;;;;;;15.98;100.00;97037.57;109883;1248;60162;-70
2022/08/18 03:01:46;;;;;;;26.30;15.60;;;;;;;15.99;100.00;97039.20;110034;1249;59722;-71
2022/08/18 03:04:19;;;;;;;18.60;14.30;;;;;;;15.99;100.00;97037.23;110019;1250;70787;-72
2022/08/18 03:07:01;;;;;;;19.60;13.30;;;;;;;15.98;100.00;97036.77;109757;1251;69415;-71
2022/08/18 03:09:33;;;;;;;22.90;12.00;;;;;;;15.99;100.00;97038.31;109690;1250;68635;-73
2022/08/18 03:12:06;;;;;;;16.80;11.40;;;;;;;16.00;100.00;97043.67;109993;1249;59786;-69
2022/08/18 03:14:38;;;;;;;27.70;12.90;;;;;;;16.00;100.00;97046.66;110051;1250;59649;-71
2022/08/18 03:17:09;;;;;;;27.30;12.60;;;;;;;15.99;100.00;97049.16;109693;1250;71561;-71
2022/08/18 03:19:38;;;;;;;16.40;10.40;;;;;;;15.97;100.00;97047.42;110087;1249;68687;-71
2022/08/18 03:22:13;;;;;;;18.50;13.50;;;;;;;15.97;100.00;97044.77;109805;1250;69463;-71
2022/08/18 03:24:57;;;;;;;25.20;13.70;;;;;;;15.99;100.00;97044.93;110005;1250;59710;-71
2022/08/18 03:27:27;;;;;;;24.70;14.20;;;;;;;16.01;100.00;97048.11;110002;1250;59676;-72
2022/08/18 03:29:57;;;;;;;18.40;12.20;;;;;;;16.02;100.00;97046.77;110028;1248;70559;-73
2022/08/18 03:32:27;;;;;;;;;;;;;;;16.05;100.00;97044.70;110021;1248;68711;-72
2022/08/18 03:34:56;;;;;;;17.80;11.70;;;;;;;16.07;100.00;97042.57;109749;1250;69444;-73
2022/08/18 03:37:25;;;;;;;17.80;12.30;;;;;;;16.11;100.00;97040.49;109992;1249;59745;-72
2022/08/18 03:39:55;;;;;;;;;;;;;;;16.14;100.00;97043.65;110366;1248;59701;-72
2022/08/18 03:42:25;;;;;;;35.60;13.30;;;;;;;16.17;100.00;97045.77;110130;1247;70796;-74
2022/08/18 03:44:54;;;;;;;25.60;15.60;;;;;;;16.18;100.00;97041.33;110123;1247;69243;-73
2022/08/18 03:47:26;;;;;;;20.20;13.60;;;;;;;16.19;100.00;97041.71;110773;1247;68667;-72
2022/08/18 03:49:55;;;;;;;20.10;11.30;;;;;;;16.21;100.00;97040.63;110108;1248;59756;-74
2022/08/18 03:52:25;;;;;;;17.50;14.00;;;;;;;16.24;100.00;97038.27;110170;1247;59643;-72
2022/08/18 03:54:55;;;;;;;21.00;12.60;;;;;;;16.27;100.00;97038.20;110182;1248;71389;-74
2022/08/18 03:57:24;;;;;;;22.20;14.80;;;;;;;16.32;100.00;97041.48;110229;1247;68735;-74
2022/08/18 03:59:55;;;;;;;22.10;14.40;;;;;;;16.38;100.00;97040.66;110189;1247;68464;-73
2022/08/18 04:02:24;;;;;;;19.80;13.50;;;;;;;16.40;100.00;97035.55;110242;1247;59729;-73
2022/08/18 04:04:54;;;;;;;;;;;;;;;16.39;100.00;97042.31;110217;1248;59701;-71
2022/08/18 04:07:23;;;;;;;14.40;11.20;;;;;;;16.39;100.00;97054.17;110160;1247;71399;-72
2022/08/18 04:09:52;;;;;;;27.40;15.90;;;;;;;16.40;100.00;97056.66;110068;1247;70268;-71
2022/08/18 04:12:22;;;;;;;18.30;13.70;;;;;;;16.41;100.00;97051.60;110203;1247;68427;-73
2022/08/18 04:14:52;;;;;;;17.10;12.60;;;;;;;16.45;100.00;97059.10;110145;1247;59735;-73
2022/08/18 04:17:23;;;;;;;;;;;;;;;16.50;100.00;97063.52;110120;1247;59696;-71
2022/08/18 04:19:55;;;;;;;22.60;16.00;;;;;;;16.55;100.00;97063.86;110082;1247;71359;-71
2022/08/18 04:22:25;;;;;;;21.40;14.50;;;;;;;16.61;100.00;97060.13;110272;1247;68597;-71
2022/08/18 04:24:54;;;;;;;20.30;14.50;;;;;;;16.69;100.00;97057.58;110042;1247;69530;-72
2022/08/18 04:27:28;;;;;;;20.80;15.40;;;;;;;16.78;100.00;97065.59;110182;1248;59744;-73
2022/08/18 04:29:57;;;;;;;29.00;16.00;;;;;;;16.89;100.00;97069.63;110197;1248;59736;-71
2022/08/18 04:32:29;;;;;;;21.30;14.60;;;;;;;16.98;100.00;97070.71;110056;1245;70711;-73
2022/08/18 04:34:59;;;;;;;18.30;13.20;;;;;;;17.11;100.00;97070.98;110201;1248;69363;-73
2022/08/18 04:37:31;;;;;;;22.80;15.90;;;;;;;17.22;100.00;97063.81;110078;1247;68394;-71
2022/08/18 04:40:09;;;;;;;18.10;14.30;;;;;;;17.33;100.00;97064.15;110164;1247;59756;-72
2022/08/18 04:42:46;;;;;;;32.50;14.00;;;;;;;17.42;100.00;97070.50;110111;1247;59691;-72
2022/08/18 04:45:26;;;;;;;21.50;13.00;;;;;;;17.51;100.00;97070.61;110081;1247;70785;-74
2022/08/18 04:47:56;;;;;;;16.60;12.00;;;;;;;17.57;100.00;97067.39;110212;1247;68651;-74
2022/08/18 04:50:26;;;;;;;16.40;10.90;;;;;;;17.63;100.00;97067.55;110766;1247;68636;-73
2022/08/18 04:55:47;;;;;;;17.20;12.10;;;;;;;17.80;100.00;97074.17;110112;1247;59753;-73
2022/08/18 04:58:17;;;;;;;19.40;12.20;;;;;;;17.88;100.00;97073.45;110193;1247;70807;-75
2022/08/18 05:00:57;;;;;;;25.10;14.50;;;;;;;17.91;100.00;97078.17;110091;1247;68745;-75
2022/08/18 05:03:26;;;;;;;21.10;11.80;;;;;;;17.92;100.00;97078.80;110125;1248;69500;-74
2022/08/18 05:05:58;;;;;;;17.20;10.80;;;;;;;17.92;100.00;97077.51;110154;1247;59678;-77
2022/08/18 05:08:28;;;;;;;16.70;10.60;;;;;;;17.91;99.83;97084.55;110134;1247;59655;-74
2022/08/18 05:10:58;;;;;;;24.00;14.20;;;;;;;17.90;99.38;97091.14;110109;1248;71251;-73
2022/08/18 05:13:31;;;;;;;14.10;10.60;;;;;;;17.88;99.78;97088.42;110003;1250;68825;-75
2022/08/18 05:16:02;;;;;;;15.20;11.90;;;;;;;17.89;99.97;97086.02;110122;1247;68558;-75
2022/08/18 05:18:47;;;;;;;17.20;12.10;;;;;;;17.89;100.00;97088.33;110007;1250;59740;-75
2022/08/18 05:21:21;;;;;;;21.70;14.70;;;;;;;17.89;100.00;97090.71;110235;1247;59634;-75
2022/08/18 05:23:51;;;;;;;30.50;14.50;;;;;;;17.91;100.00;97091.92;110226;1247;72306;-76
2022/08/18 05:26:20;;;;;;;15.70;12.00;;;;;;;17.90;100.00;97088.62;110194;1247;69589;-75
2022/08/18 05:28:49;;;;;;;15.50;12.40;;;;;;;17.90;100.00;97089.55;110168;1247;69438;-75
2022/08/18 05:31:33;;;;;;;17.60;11.50;;;;;;;17.96;100.00;97095.22;110222;1247;59670;-75
2022/08/18 05:34:03;;;;;;;43.40;14.50;;;;;;;17.99;99.97;97097.21;110099;1247;59692;-74
2022/08/18 05:36:34;;;;;;;25.40;14.20;;;;;;;17.94;99.77;97099.19;110149;1247;71509;-76
2022/08/18 05:39:28;;;;;;;21.10;13.40;;;;;;;17.90;99.98;97096.62;110069;1246;69871;-77
2022/08/18 05:42:07;;;;;;;23.70;14.70;;;;;;;17.91;100.00;97100.45;110086;1247;67708;-74
2022/08/18 05:44:47;;;;;;;17.80;14.00;;;;;;;18.02;100.00;97104.94;110150;1247;59755;-74
2022/08/18 05:47:28;;;;;;;19.00;14.00;;;;;;;18.11;99.86;97103.83;110076;1247;59621;-75
2022/08/18 05:50:07;;;;;;;14.40;11.10;;;;;;;18.21;99.26;97100.48;110177;1247;72106;-75
2022/08/18 05:52:43;;;;;;;14.00;12.40;;;;;;;18.27;98.63;97106.36;110745;1247;68925;-73
2022/08/18 05:58:32;;;;;;;12.30;10.30;;;;;;;18.33;97.74;97100.70;110015;1247;59740;-75
2022/08/18 06:01:06;;;;;;;11.10;9.30;;;;;;;18.45;97.72;97097.93;110154;1247;59729;-76
2022/08/18 06:03:42;;;;;;;14.20;11.90;;;;;;;18.59;97.27;97099.52;110021;1250;71382;-74
2022/08/18 06:06:22;;;;;;;15.20;13.40;;;;;;;18.73;96.30;97097.23;110276;1247;69996;-73
2022/08/18 06:08:56;;;;;;;17.80;15.00;;;;;;;18.89;94.80;97097.48;110054;1250;70033;-73
2022/08/18 06:11:25;;;;;;;12.10;10.10;;;;;;;19.07;94.20;97098.36;110237;1247;59728;-71
2022/08/18 06:13:54;;;;;;;12.90;11.10;;;;;;;19.22;92.56;97097.44;110208;1247;59697;-72
2022/08/18 06:16:47;;;;;;;12.30;10.10;;;;;;;19.40;92.12;97103.90;110213;1248;72187;-73
2022/08/18 06:19:55;;;;;;;15.20;13.70;;;;;;;19.49;91.43;97102.72;109800;1250;68707;-75
2022/08/18 06:22:43;;;;;;;13.80;12.40;;;;;;;19.45;90.84;97106.41;110260;1247;69455;-74
2022/08/18 06:25:33;;;;;;;13.20;11.70;;;;;;;19.40;90.52;97106.67;110121;1247;59782;-73
2022/08/18 06:28:06;;;;;;;12.40;11.10;;;;;;;19.39;91.01;97106.95;110165;1247;59724;-75
2022/08/18 06:30:41;;;;;;;13.40;11.70;;;;;;;19.43;91.33;97113.39;110141;1247;71738;-75
2022/08/18 06:33:31;;;;;;;12.70;11.10;;;;;;;19.31;91.36;97110.94;110228;1247;68933;-73
2022/08/18 06:36:34;;;;;;;11.50;10.10;;;;;;;19.52;91.02;97108.50;110237;1247;69835;-73
2022/08/18 06:39:46;;;;;;;10.70;8.90;;;;;;;19.80;90.03;97113.91;110140;1247;59732;-72
2022/08/18 06:42:24;;;;;;;10.40;9.40;;;;;;;20.38;88.27;97110.89;109208;1257;59729;-70
2022/08/18 06:45:11;;;;;;;12.80;9.80;;;;;;;21.03;84.44;97110.09;109242;1256;70991;-71
2022/08/18 06:47:53;;;;;;;12.60;10.90;;;;;;;21.66;80.70;97109.42;109853;1247;69838;-70
2022/08/18 06:50:37;;;;;;;13.00;10.90;;;;;;;22.09;77.45;97112.58;110139;1247;69789;-72
2022/08/18 06:53:10;;;;;;;11.70;10.50;;;;;;;22.48;77.51;97112.77;109818;1248;60171;-70
2022/08/18 06:55:55;;;;;;;12.20;11.00;;;;;;;22.61;76.41;97118.36;110111;1248;59636;-68
2022/08/18 06:58:29;;;;;;;11.30;10.20;;;;;;;22.71;76.78;97114.02;109944;1247;71585;-71
2022/08/18 07:01:06;;;;;;;10.80;9.20;;;;;;;22.88;77.42;97115.42;110193;1247;70077;-71
2022/08/18 07:03:35;;;;;;;11.00;9.90;;;;;;;23.12;75.79;97107.73;110133;1247;69428;-71
2022/08/18 07:06:22;;;;;;;9.90;8.90;;;;;;;23.00;74.89;97110.06;110099;1247;59759;-71
2022/08/18 07:08:55;;;;;;;9.20;8.10;;;;;;;23.17;75.56;97117.48;109858;1250;59748;-68
2022/08/18 07:11:23;;;;;;;11.70;10.50;;;;;;;23.40;74.20;97115.61;110092;1247;70723;-72
2022/08/18 07:13:57;;;;;;;10.00;8.90;;;;;;;23.31;73.23;97114.79;110120;1247;68917;-70
2022/08/18 07:16:44;;;;;;;12.00;10.40;;;;;;;23.62;72.72;97110.08;110046;1247;69502;-72
2022/08/18 07:19:30;;;;;;;9.70;8.70;;;;;;;23.29;72.67;97113.84;109994;1247;60081;-71
2022/08/18 07:22:17;;;;;;;11.30;10.10;;;;;;;23.42;71.89;97116.48;110104;1247;59748;-70
2022/08/18 07:24:50;;;;;;;10.10;9.10;;;;;;;23.84;71.74;97113.06;109731;1247;70890;-70
2022/08/18 07:27:22;;;;;;;14.40;12.50;;;;;;;23.93;71.18;97117.91;110053;1247;68661;-72
2022/08/18 07:30:23;;;;;;;14.00;12.60;;;;;;;23.90;70.67;97115.90;110476;1247;69264;-72
2022/08/18 07:33:09;;;;;;;13.30;11.50;;;;;;;23.76;70.00;97113.77;110028;1247;59741;-68
2022/08/18 07:35:41;;;;;;;13.70;12.30;;;;;;;23.51;70.65;97110.89;110122;1247;60104;-70
2022/08/18 07:38:19;;;;;;;14.70;12.90;;;;;;;23.71;70.67;97110.69;109853;1250;71654;-71
2022/08/18 07:41:44;;;;;;;14.20;12.70;;;;;;;23.84;70.04;97109.98;110030;1248;68752;-70
2022/08/18 07:44:26;;;;;;;13.30;12.00;;;;;;;23.66;70.18;97109.77;109589;1250;68657;-70
2022/08/18 07:47:00;;;;;;;13.10;11.80;;;;;;;23.93;70.39;97114.20;110085;1247;59827;-71
2022/08/18 07:49:34;;;;;;;14.40;13.00;;;;;;;24.23;68.74;97116.92;109916;1250;59713;-71
2022/08/18 07:52:17;;;;;;;12.90;11.60;;;;;;;24.31;69.11;97114.26;110068;1248;72022;-71
2022/08/18 07:55:21;;;;;;;14.80;13.40;;;;;;;24.79;67.71;97110.09;110024;1248;68754;-70
2022/08/18 07:58:05;;;;;;;12.00;10.80;;;;;;;25.14;66.13;97104.01;110145;1247;68759;-71
2022/08/18 08:00:45;;;;;;;13.70;12.30;;;;;;;25.46;65.89;97101.70;110063;1248;59789;-72
2022/08/18 08:03:41;;;;;;;12.40;11.20;;;;;;;26.00;64.69;97103.77;109892;1248;59679;-71
2022/08/18 08:06:38;;;;;;;14.20;12.70;;;;;;;26.34;62.82;97108.80;110156;1247;72311;-70
2022/08/18 08:09:22;;;;;;;15.10;13.60;;;;;;;26.70;61.50;97109.48;110173;1247;69328;-71
2022/08/18 08:11:57;;;;;;;17.30;14.00;;;;;;;26.57;60.39;97115.45;110134;1247;68689;-70
2022/08/18 08:14:44;;;;;;;16.10;14.00;;;;;;;26.69;59.73;97109.81;110014;1247;59761;-70
2022/08/18 08:17:44;;;;;;;15.90;13.50;;;;;;;26.79;59.79;97109.27;110135;1247;59611;-73
2022/08/18 08:20:25;;;;;;;12.10;10.90;;;;;;;27.10;59.03;97104.77;110121;1247;71393;-71
2022/08/18 08:23:26;;;;;;;14.00;12.50;;;;;;;27.61;58.48;97100.46;110089;1247;70057;-71
2022/08/18 08:26:22;;;;;;;21.00;14.70;;;;;;;27.86;57.21;97105.05;109969;1247;69408;-71
2022/08/18 08:29:02;;;;;;;17.80;14.30;;;;;;;28.04;55.32;97104.13;110154;1248;59752;-75
2022/08/18 08:31:36;;;;;;;;;;;;;;;27.73;56.62;97105.69;110163;1247;59722;-71
2022/08/18 08:34:17;;;;;;;12.80;11.40;;;;;;;27.74;55.57;97105.08;110234;1247;71602;-73
2022/08/18 08:36:46;;;;;;;14.70;13.20;;;;;;;27.80;55.75;97107.16;110209;1247;70408;-71
2022/08/18 08:39:23;;;;;;;14.60;12.40;;;;;;;27.95;54.83;97104.44;110199;1247;69865;-71
2022/08/18 08:42:15;;;;;;;15.00;12.00;;;;;;;28.38;55.28;97104.43;110068;1247;59690;-72
2022/08/18 08:45:07;;;;;;;14.30;12.70;;;;;;;28.68;53.51;97102.54;110106;1247;60109;-72
2022/08/18 08:48:04;;;;;;;10.70;9.60;;;;;;;28.90;53.40;97107.77;109656;1250;71607;-71
2022/08/18 08:50:50;;;;;;;11.20;8.70;;;;;;;29.44;51.40;97106.72;110150;1247;69399;-69
2022/08/18 08:53:37;;;;;;;10.80;9.70;;;;;;;29.62;50.81;97102.08;109837;1247;69290;-75
2022/08/18 08:56:13;;;;;;;9.70;8.70;;;;;;;29.86;48.71;97100.48;109805;1250;59779;-72
2022/08/18 08:58:48;;;;;;;8.50;6.70;;;;;;;30.13;49.98;97100.95;109841;1249;59733;-72
2022/08/18 09:01:47;;;;;;;9.00;8.20;;;;;;;30.63;46.30;97103.84;109857;1249;70848;-72
2022/08/18 09:04:34;;;;;;;7.40;6.70;;;;;;;31.00;46.69;97095.10;109818;1250;68876;-73
2022/08/18 09:07:35;;;;;;;6.90;6.20;;;;;;;31.56;43.55;97091.11;109738;1250;67690;-74
2022/08/18 09:10:15;;;;;;;7.30;6.50;;;;;;;32.21;40.73;97091.67;109751;1250;59655;-72
2022/08/18 09:12:53;;;;;;;;;;;;;;;31.76;40.45;97095.95;109665;1250;59692;-71
2022/08/18 09:15:28;;;;;;;;;;;;;;;31.70;40.48;97097.98;109736;1250;70793;-73
2022/08/18 09:18:16;;;;;;;6.00;5.50;;;;;;;32.24;40.97;97094.40;109830;1250;69430;-73
2022/08/18 09:20:50;;;;;;;5.40;4.90;;;;;;;32.90;41.27;97097.18;109768;1250;68630;-71
2022/08/18 09:23:24;;;;;;;6.70;5.50;;;;;;;32.92;39.89;97097.03;109677;1250;60081;-73
2022/08/18 09:25:57;;;;;;;5.70;5.00;;;;;;;33.50;38.77;97095.70;109812;1250;59714;-73
2022/08/18 09:28:27;;;;;;;6.10;5.50;;;;;;;33.81;37.49;97092.49;109762;1250;70748;-70
2022/08/18 09:31:02;;;;;;;;;;;;;;;34.05;38.29;97092.44;109862;1250;69728;-73
2022/08/18 09:33:44;;;;;;;6.90;6.00;;;;;;;34.26;36.67;97092.50;110625;1249;69508;-71
2022/08/18 09:36:32;;;;;;;6.50;5.90;;;;;;;34.15;37.13;97095.98;109716;1250;59775;-72
2022/08/18 09:42:40;;;;;;;12.90;11.70;;;;;;;35.16;35.08;97090.14;109900;1249;70888;-72
2022/08/18 09:45:29;;;;;;;15.50;14.10;;;;;;;35.17;35.48;97085.80;109860;1250;68513;-72
2022/08/18 09:48:12;;;;;;;10.10;9.10;;;;;;;35.54;36.50;97086.36;109964;1250;69399;-71
2022/08/18 09:51:00;;;;;;;16.40;14.70;;;;;;;35.26;35.43;97080.48;109873;1250;59748;-72
2022/08/18 09:53:57;;;;;;;13.20;11.90;;;;;;;35.95;35.13;97075.73;109832;1250;59692;-72
2022/08/18 09:56:45;;;;;;;;;;;;;;;36.19;34.78;97074.50;109973;1249;71644;-72
2022/08/18 09:59:31;;;;;;;6.00;5.40;;;;;;;36.19;34.54;97071.94;109959;1249;70392;-72
2022/08/18 10:02:02;;;;;;;6.00;5.50;;;;;;;36.03;34.40;97076.89;109933;1249;68752;-71
2022/08/18 10:04:47;;;;;;;6.60;6.00;;;;;;;35.96;34.35;97070.30;109995;1250;59728;-71
2022/08/18 10:07:36;;;;;;;6.50;5.90;;;;;;;36.04;34.26;97067.69;109889;1250;59747;-72
2022/08/18 10:10:24;;;;;;;5.70;5.20;;;;;;;36.25;34.67;97064.21;109922;1249;71974;-72
2022/08/18 10:13:22;;;;;;;7.20;6.60;;;;;;;36.73;34.11;97065.77;109682;1250;69819;-71
2022/08/18 10:16:41;;;;;;;6.80;6.10;;;;;;;36.66;33.01;97070.02;109831;1250;68778;-73
2022/08/18 10:19:57;;;;;;;6.80;5.30;;;;;;;36.84;31.68;97069.45;109963;1250;59726;-73
2022/08/18 10:22:46;;;;;;;5.80;5.30;;;;;;;37.04;32.81;97065.65;109926;1250;59699;-73
2022/08/18 10:25:30;;;;;;;6.00;5.40;;;;;;;37.30;30.84;97066.99;109905;1249;72220;-73
2022/08/18 10:28:04;;;;;;;5.20;4.80;;;;;;;37.27;30.82;97063.38;109884;1249;69305;-73
2022/08/18 10:30:33;;;;;;;5.80;5.30;;;;;;;37.49;31.76;97063.55;110154;1250;69876;-74
2022/08/18 10:34:13;;;;;;;6.70;6.00;;;;;;;37.15;30.03;97060.63;109992;1249;59705;-73
2022/08/18 10:37:10;;;;;;;5.90;5.30;;;;;;;37.38;31.50;97056.48;109830;1250;59708;-72
2022/08/18 10:39:53;;;;;;;5.40;4.90;;;;;;;37.62;30.75;97055.12;109932;1249;72079;-72
2022/08/18 10:42:44;;;;;;;7.50;6.30;;;;;;;37.57;29.64;97059.55;109821;1250;69242;-73
2022/08/18 10:45:24;;;;;;;5.40;4.90;;;;;;;37.98;30.53;97055.44;109683;1250;67556;-73
2022/08/18 10:48:12;;;;;;;6.80;6.00;;;;;;;37.92;29.57;97050.84;109760;1249;59641;-71
2022/08/18 10:51:01;;;;;;;6.70;4.90;;;;;;;37.90;29.90;97056.81;109886;1247;59682;-71
2022/08/18 10:53:50;;;;;;;5.20;4.60;;;;;;;38.08;29.20;97058.18;109821;1250;72188;-72
2022/08/18 10:56:29;;;;;;;4.50;4.10;;;;;;;38.34;29.54;97061.58;109881;1249;68551;-73
2022/08/18 10:59:23;;;;;;;5.60;4.90;;;;;;;37.76;28.48;97063.29;109876;1250;69524;-74
2022/08/18 11:01:56;;;;;;;;;;;;;;;37.72;28.35;97069.45;109878;1250;59757;-73
2022/08/18 11:04:25;;;;;;;8.40;7.60;;;;;;;38.13;29.93;97066.71;109976;1249;59653;-70
2022/08/18 11:07:11;;;;;;;16.30;14.80;;;;;;;38.03;29.70;97063.60;109948;1250;71966;-72
2022/08/18 11:09:42;;;;;;;9.30;8.50;;;;;;;37.46;29.05;97065.81;109921;1249;69618;-73
2022/08/18 11:12:51;;;;;;;7.00;6.40;;;;;;;37.95;28.61;97058.33;109871;1249;67764;-72
2022/08/18 11:15:27;;;;;;;5.50;5.00;;;;;;;38.27;28.99;97058.96;109873;1249;59688;-72
2022/08/18 11:18:16;;;;;;;4.70;4.20;;;;;;;38.23;27.41;97051.84;110044;1249;59679;-74
2022/08/18 11:20:45;;;;;;;5.30;4.70;;;;;;;38.43;29.22;97053.36;109924;1249;71514;-71
2022/08/18 11:23:16;;;;;;;4.90;4.50;;;;;;;38.62;28.56;97055.66;110051;1249;68650;-74
2022/08/18 11:25:45;;;;;;;5.50;4.30;;;;;;;38.79;28.06;97055.83;109919;1250;69874;-74
2022/08/18 11:28:22;;;;;;;5.20;4.70;;;;;;;38.46;26.83;97052.10;110584;1249;59699;-74
2022/08/18 11:30:59;;;;;;;5.50;4.80;;;;;;;38.20;27.78;97053.08;110372;1248;59664;-73
2022/08/18 11:33:27;;;;;;;6.00;4.50;;;;;;;38.63;27.42;97051.81;110013;1250;70787;-74
2022/08/18 11:36:00;;;;;;;5.30;4.40;;;;;;;38.75;27.16;97053.94;110001;1249;69498;-74
2022/08/18 11:38:30;;;;;;;5.00;4.10;;;;;;;38.82;27.28;97053.40;109967;1250;69879;-72
2022/08/18 11:41:18;;;;;;;5.70;4.50;;;;;;;38.62;27.35;97051.33;109885;1249;59717;-72
2022/08/18 11:43:47;;;;;;;4.60;4.10;;;;;;;38.33;27.26;97044.45;110027;1249;59640;-72
2022/08/18 11:46:39;;;;;;;5.10;4.30;;;;;;;38.52;27.66;97039.02;110005;1249;71358;-72
2022/08/18 11:49:19;;;;;;;5.90;5.30;;;;;;;38.49;27.89;97037.20;109948;1250;69175;-71
2022/08/18 11:52:04;;;;;;;6.30;5.70;;;;;;;38.08;28.58;97036.52;109897;1249;68502;-71
2022/08/18 11:54:42;;;;;;;6.00;5.10;;;;;;;37.99;28.99;97036.27;109942;1247;59897;-71
2022/08/18 11:57:40;;;;;;;5.30;4.80;;;;;;;38.14;28.57;97034.08;110151;1247;59692;-72
2022/08/18 12:00:52;;;;;;;5.40;4.90;;;;;;;37.80;27.94;97040.10;109991;1247;71690;-72
2022/08/18 12:03:36;;;;;;;5.80;4.70;;;;;;;38.09;27.86;97037.69;110151;1247;69429;-72
2022/08/18 12:06:20;;;;;;;5.60;4.90;;;;;;;38.06;27.99;97031.48;110095;1247;68464;-73
2022/08/18 12:09:13;;;;;;;4.60;4.20;;;;;;;38.08;28.55;97029.74;110110;1247;59660;-74
2022/08/18 12:12:25;;;;;;;5.40;4.30;;;;;;;37.61;26.48;97029.89;110054;1247;59676;-74
2022/08/18 12:15:00;;;;;;;5.70;5.20;;;;;;;36.09;27.67;97022.34;110158;1247;71623;-74
2022/08/18 12:17:46;;;;;;;5.10;4.60;;;;;;;35.74;28.97;97026.65;110190;1247;69504;-69
2022/08/18 12:20:21;;;;;;;4.60;4.10;;;;;;;36.55;29.04;97028.73;109953;1247;69850;-73